Gillisonville, South Carolina
Current Conditions -  °F | °C
As of 8:56 PM on Saturday 22 Nov 2014 (Local Time) from KNBC Reporting Station
Broken Clouds Broken Clouds  
Wind Chill: 56°   Ceiling: 11000
Heat Index: 56°   Visibility: 10mi
Dew Point: 53°   Wind: 6mph
Humidity: 90%   Direction: 50°NE
Pressure: 30.29"   Gusts: NA
Location:  32.4773°N, 80.9264°W
Report Text: KNBC 230156Z AUTO 05005KT 10SM BKN110 13/12 A3029 RMK AO2 SLP258 T01330117 $
Loading
Personal Weather Stations






























Interactive Weather Map New forecast layout! Learn more

10-Day Weather Forecast

Advertisements
Track Severe Weather on mobile